createdAt,value
2018-12-21T00:02:08.246Z,1.60
2018-12-21T00:04:39.801Z,1.60
2018-12-21T00:07:11.572Z,1.37
2018-12-21T00:09:44.240Z,1.40
2018-12-21T00:12:14.823Z,1.33
2018-12-21T00:14:46.248Z,1.57
2018-12-21T00:17:17.746Z,1.30
2018-12-21T00:19:49.243Z,1.80
2018-12-21T00:22:19.905Z,1.50
2018-12-21T00:24:50.968Z,1.40
2018-12-21T00:27:21.569Z,1.60
2018-12-21T00:29:52.645Z,1.90
2018-12-21T00:32:29.838Z,1.53
2018-12-21T00:35:05.780Z,1.50
2018-12-21T00:37:42.490Z,1.60
2018-12-21T00:40:18.573Z,1.50
2018-12-21T00:42:55.289Z,1.57
2018-12-21T00:48:25.998Z,2.07
2018-12-21T00:50:57.830Z,2.10
2018-12-21T00:53:30.491Z,1.57
2018-12-21T00:56:02.448Z,1.57
2018-12-21T00:58:35.778Z,1.70
2018-12-21T01:01:07.878Z,1.43
2018-12-21T01:03:40.815Z,1.77
2018-12-21T01:06:14.501Z,1.57
2018-12-21T01:08:46.301Z,1.50
2018-12-21T01:11:17.653Z,1.73
2018-12-21T01:13:48.295Z,1.53
2018-12-21T01:16:18.898Z,1.60
2018-12-21T01:18:49.916Z,1.37
2018-12-21T01:21:21.097Z,1.40
2018-12-21T01:23:51.655Z,1.90
2018-12-21T01:26:22.925Z,1.90
2018-12-21T01:28:53.508Z,1.70
2018-12-21T01:31:25.718Z,1.33
2018-12-21T01:33:56.263Z,1.57
2018-12-21T01:36:27.842Z,1.40
2018-12-21T01:38:58.478Z,1.70
2018-12-21T01:41:29.693Z,1.40
2018-12-21T01:44:00.821Z,1.30
2018-12-21T01:46:32.133Z,1.40
2018-12-21T01:49:06.471Z,1.40
2018-12-21T01:51:46.896Z,1.60
2018-12-21T01:54:12.421Z,1.50
2018-12-21T01:56:44.494Z,1.60
2018-12-21T01:59:15.042Z,1.37
2018-12-21T02:01:48.738Z,1.27
2018-12-21T02:04:20.848Z,1.47
2018-12-21T02:06:54.136Z,1.40
2018-12-21T02:09:25.613Z,1.13
2018-12-21T02:11:56.277Z,1.40
2018-12-21T02:14:27.942Z,1.33
2018-12-21T02:16:58.549Z,1.20
2018-12-21T02:19:29.165Z,1.20
2018-12-21T02:21:59.830Z,1.23
2018-12-21T02:24:31.326Z,1.10
2018-12-21T02:27:01.926Z,1.23
2018-12-21T02:29:34.003Z,1.20
2018-12-21T02:32:05.210Z,1.40
2018-12-21T02:34:36.392Z,1.17
2018-12-21T02:37:08.160Z,1.20
2018-12-21T02:39:40.297Z,1.10
2018-12-21T02:42:11.149Z,1.33
2018-12-21T02:44:41.747Z,0.90
2018-12-21T02:47:13.293Z,1.00
2018-12-21T02:49:44.061Z,1.10
2018-12-21T02:52:16.664Z,0.87
2018-12-21T02:54:48.798Z,1.13
2018-12-21T02:57:19.391Z,1.10
2018-12-21T02:59:53.264Z,1.00
2018-12-21T03:02:24.442Z,1.00
2018-12-21T03:04:55.663Z,1.30
2018-12-21T03:07:27.950Z,1.00
2018-12-21T03:09:58.513Z,0.97
2018-12-21T03:12:29.534Z,1.13
2018-12-21T03:15:01.242Z,1.03
2018-12-21T03:17:32.047Z,1.13
2018-12-21T03:20:03.990Z,1.10
2018-12-21T03:22:35.525Z,0.90
2018-12-21T03:25:07.722Z,1.10
2018-12-21T03:27:39.838Z,1.17
2018-12-21T03:30:12.504Z,1.07
2018-12-21T03:32:44.531Z,1.13
2018-12-21T03:35:16.778Z,1.50
2018-12-21T03:37:49.855Z,1.13
2018-12-21T03:40:22.451Z,1.00
2018-12-21T03:42:53.801Z,0.90
2018-12-21T03:45:28.762Z,1.10
2018-12-21T03:48:00.901Z,1.00
2018-12-21T03:50:33.651Z,1.20
2018-12-21T03:53:04.719Z,0.80
2018-12-21T03:55:36.822Z,1.07
2018-12-21T03:58:07.353Z,1.10
2018-12-21T04:00:38.350Z,1.07
2018-12-21T04:03:10.325Z,1.33
2018-12-21T04:05:42.277Z,1.30
2018-12-21T04:08:12.818Z,1.00
2018-12-21T04:10:44.765Z,1.23
2018-12-21T04:13:15.578Z,0.93
2018-12-21T04:15:46.605Z,1.07
2018-12-21T04:18:17.402Z,1.00
2018-12-21T04:20:48.007Z,0.90
2018-12-21T04:23:18.891Z,1.03
2018-12-21T04:25:49.473Z,0.90
2018-12-21T04:28:20.510Z,1.10
2018-12-21T04:30:51.104Z,1.20
2018-12-21T04:33:21.684Z,1.13
2018-12-21T04:35:53.293Z,1.00
2018-12-21T04:38:23.868Z,0.90
2018-12-21T04:40:54.447Z,1.00
2018-12-21T04:43:25.011Z,0.90
2018-12-21T04:45:56.012Z,1.10
2018-12-21T04:48:26.585Z,0.90
2018-12-21T04:50:57.131Z,1.30
2018-12-21T04:53:27.843Z,0.90
2018-12-21T04:55:58.438Z,1.10
2018-12-21T04:58:29.081Z,0.90
2018-12-21T05:01:00.031Z,0.90
2018-12-21T05:03:30.841Z,0.83
2018-12-21T05:06:01.513Z,1.00
2018-12-21T05:08:32.054Z,1.20
2018-12-21T05:11:02.624Z,1.20
2018-12-21T05:13:33.178Z,1.10
2018-12-21T05:16:04.178Z,1.00
2018-12-21T05:18:34.766Z,1.30
2018-12-21T05:21:06.279Z,1.20
2018-12-21T05:23:37.145Z,1.10
2018-12-21T05:26:07.736Z,1.17
2018-12-21T05:28:38.425Z,0.80
2018-12-21T05:31:09.021Z,0.90
2018-12-21T05:33:39.862Z,0.80
2018-12-21T05:36:10.421Z,0.80
2018-12-21T05:38:41.314Z,1.10
2018-12-21T05:41:12.460Z,1.00
2018-12-21T05:43:44.346Z,1.00
2018-12-21T05:46:14.906Z,0.70
2018-12-21T05:48:48.283Z,1.03
2018-12-21T05:51:18.826Z,1.13
2018-12-21T05:53:53.005Z,0.80
2018-12-21T05:56:23.957Z,1.00
2018-12-21T05:58:59.161Z,0.90
2018-12-21T06:01:29.737Z,0.80
2018-12-21T06:04:02.065Z,0.90
2018-12-21T06:06:35.346Z,0.73
2018-12-21T06:09:09.204Z,1.10
2018-12-21T06:11:43.816Z,0.80
2018-12-21T06:14:14.354Z,1.00
2018-12-21T06:16:45.576Z,1.10
2018-12-21T06:19:19.046Z,0.80
2018-12-21T06:21:51.665Z,0.73
2018-12-21T06:24:23.518Z,1.13
2018-12-21T06:26:55.093Z,0.70
2018-12-21T06:29:25.643Z,0.77
2018-12-21T06:33:35.168Z,0.60
2018-12-21T06:36:12.169Z,0.70
2018-12-21T06:38:43.933Z,1.30
2018-12-21T06:41:14.499Z,0.80
2018-12-21T06:43:45.876Z,0.80
2018-12-21T06:46:16.473Z,0.70
2018-12-21T06:48:49.030Z,0.60
2018-12-21T06:51:24.378Z,0.80
2018-12-21T06:54:02.849Z,0.90
2018-12-21T06:56:34.020Z,0.77
2018-12-21T06:59:05.035Z,1.20
2018-12-21T07:01:36.607Z,1.53
2018-12-21T07:04:07.182Z,0.83
2018-12-21T07:06:37.786Z,0.90
2018-12-21T07:09:10.282Z,0.80
2018-12-21T07:11:42.614Z,0.97
2018-12-21T07:14:14.975Z,0.80
2018-12-21T07:16:45.520Z,0.93
2018-12-21T07:19:17.573Z,1.10
2018-12-21T07:21:48.677Z,1.03
2018-12-21T07:24:21.475Z,1.10
2018-12-21T07:26:53.070Z,1.27
2018-12-21T07:29:25.654Z,1.13
2018-12-21T07:31:57.593Z,1.57
2018-12-21T07:34:29.616Z,1.30
2018-12-21T07:37:01.962Z,1.30
2018-12-21T07:39:33.719Z,1.30
2018-12-21T07:42:04.342Z,1.30
2018-12-21T07:44:34.938Z,1.60
2018-12-21T07:47:07.608Z,1.10
2018-12-21T07:49:39.026Z,1.00
2018-12-21T07:52:09.686Z,1.00
2018-12-21T07:54:41.482Z,0.90
2018-12-21T07:57:12.970Z,1.10
2018-12-21T07:59:44.090Z,1.10
2018-12-21T08:02:14.715Z,0.80
2018-12-21T08:04:46.264Z,0.70
2018-12-21T08:07:17.494Z,0.73
2018-12-21T08:09:49.192Z,0.80
2018-12-21T08:12:20.686Z,0.73
2018-12-21T08:14:51.289Z,0.70
2018-12-21T08:17:24.934Z,0.77
2018-12-21T08:19:55.583Z,0.80
2018-12-21T08:22:27.761Z,0.60
2018-12-21T08:24:58.370Z,0.60
2018-12-21T08:27:30.634Z,0.80
2018-12-21T08:30:02.447Z,0.70
2018-12-21T08:32:34.614Z,0.90
2018-12-21T08:35:07.447Z,0.80
2018-12-21T08:37:38.060Z,0.70
2018-12-21T08:40:10.439Z,0.57
2018-12-21T08:42:41.038Z,0.67
2018-12-21T08:45:12.581Z,0.83
2018-12-21T08:47:44.585Z,0.50
2018-12-21T08:50:16.370Z,0.60
2018-12-21T08:52:47.548Z,0.53
2018-12-21T08:55:18.202Z,0.60
2018-12-21T08:57:49.715Z,0.80
2018-12-21T09:00:22.042Z,0.70
2018-12-21T09:02:52.831Z,0.90
2018-12-21T09:05:25.261Z,0.77
2018-12-21T09:07:56.968Z,0.90
2018-12-21T09:10:27.606Z,0.93
2018-12-21T09:12:58.530Z,0.80
2018-12-21T09:15:30.479Z,0.90
2018-12-21T09:18:01.309Z,0.80
2018-12-21T09:20:33.074Z,0.60
2018-12-21T09:23:05.646Z,0.77
2018-12-21T09:25:38.056Z,0.73
2018-12-21T09:28:09.587Z,0.70
2018-12-21T09:30:41.351Z,0.70
2018-12-21T09:33:13.886Z,0.63
2018-12-21T09:35:44.505Z,0.60
2018-12-21T09:38:16.719Z,0.70
2018-12-21T09:40:48.007Z,0.70
2018-12-21T09:43:18.584Z,0.50
2018-12-21T09:45:49.212Z,0.60
2018-12-21T09:48:19.995Z,0.80
2018-12-21T09:50:50.621Z,0.70
2018-12-21T09:53:21.222Z,0.40
2018-12-21T09:55:52.409Z,0.60
2018-12-21T09:58:23.247Z,0.67
2018-12-21T10:00:55.914Z,0.60
2018-12-21T10:03:26.473Z,0.73
2018-12-21T10:05:58.357Z,0.60
2018-12-21T10:08:29.757Z,0.50
2018-12-21T10:11:00.376Z,0.57
2018-12-21T10:13:31.021Z,0.50
2018-12-21T10:16:02.693Z,0.70
2018-12-21T10:18:35.874Z,0.57
2018-12-21T10:21:06.474Z,0.47
2018-12-21T10:23:38.014Z,0.50
2018-12-21T10:26:09.688Z,0.60
2018-12-21T10:28:40.299Z,0.40
2018-12-21T10:31:10.894Z,0.63
2018-12-21T10:33:42.882Z,0.50
2018-12-21T10:36:13.491Z,0.60
2018-12-21T10:38:46.251Z,0.70
2018-12-21T10:41:17.709Z,0.50
2018-12-21T10:43:48.698Z,0.60
2018-12-21T10:46:21.440Z,0.60
2018-12-21T10:48:52.889Z,0.50
2018-12-21T10:51:24.469Z,0.70
2018-12-21T10:53:55.074Z,0.73
2018-12-21T10:56:26.864Z,0.60
2018-12-21T10:58:58.450Z,0.50
2018-12-21T11:01:29.879Z,0.63
2018-12-21T11:04:01.466Z,0.50
2018-12-21T11:06:32.340Z,0.60
2018-12-21T11:09:05.003Z,0.60
2018-12-21T11:11:36.694Z,0.60
2018-12-21T11:14:08.582Z,0.43
2018-12-21T11:16:40.134Z,0.70
2018-12-21T11:19:12.118Z,0.73
2018-12-21T11:21:43.650Z,0.60
2018-12-21T11:24:14.234Z,0.60
2018-12-21T11:26:44.886Z,0.70
2018-12-21T11:29:15.482Z,0.60
2018-12-21T11:31:46.123Z,0.60
2018-12-21T11:34:17.654Z,0.63
2018-12-21T11:36:50.335Z,0.70
2018-12-21T11:39:21.821Z,0.90
2018-12-21T11:41:53.066Z,1.00
2018-12-21T11:44:23.665Z,3.37
2018-12-21T11:46:54.265Z,0.90
2018-12-21T11:49:25.866Z,0.73
2018-12-21T11:51:59.202Z,0.70
2018-12-21T11:54:30.749Z,0.77
2018-12-21T11:57:02.337Z,0.40
2018-12-21T11:59:35.842Z,0.70
2018-12-21T12:02:07.210Z,0.60
2018-12-21T12:04:41.015Z,0.50
2018-12-21T12:07:11.647Z,0.83
2018-12-21T12:09:42.906Z,0.67
2018-12-21T12:12:13.537Z,0.77
2018-12-21T12:14:44.533Z,0.60
2018-12-21T12:17:15.259Z,0.90
2018-12-21T12:19:46.916Z,1.20
2018-12-21T12:22:17.481Z,0.70
2018-12-21T12:24:52.705Z,1.20
2018-12-21T12:27:22.083Z,0.90
2018-12-21T12:29:52.813Z,0.67
2018-12-21T12:32:24.126Z,0.80
2018-12-21T12:34:54.973Z,0.80
2018-12-21T12:37:27.786Z,0.93
2018-12-21T12:39:59.653Z,0.70
2018-12-21T12:42:31.350Z,0.80
2018-12-21T12:45:01.986Z,0.73
2018-12-21T12:47:34.497Z,1.00
2018-12-21T12:50:07.631Z,1.00
2018-12-21T12:52:39.218Z,1.00
2018-12-21T12:55:13.220Z,0.87
2018-12-21T12:57:44.745Z,1.10
2018-12-21T13:00:16.042Z,0.87
2018-12-21T13:02:47.602Z,0.80
2018-12-21T13:05:18.339Z,0.80
2018-12-21T13:07:50.972Z,0.90
2018-12-21T13:10:21.598Z,0.80
2018-12-21T13:12:54.379Z,1.00
2018-12-21T13:15:26.979Z,0.90
2018-12-21T13:17:58.814Z,0.90
2018-12-21T13:20:31.095Z,1.13
2018-12-21T13:23:02.925Z,1.07
2018-12-21T13:25:34.159Z,0.90
2018-12-21T13:28:06.283Z,0.60
2018-12-21T13:30:36.894Z,1.03
2018-12-21T13:33:08.475Z,0.90
2018-12-21T13:35:39.685Z,1.13
2018-12-21T13:38:11.942Z,1.00
2018-12-21T13:40:42.618Z,0.80
2018-12-21T13:43:17.947Z,0.90
2018-12-21T13:45:48.570Z,0.70
2018-12-21T13:48:20.818Z,0.90
2018-12-21T13:50:51.420Z,1.00
2018-12-21T13:53:22.538Z,1.00
2018-12-21T13:55:53.852Z,0.90
2018-12-21T13:58:24.811Z,0.90
2018-12-21T14:00:55.431Z,0.70
2018-12-21T14:03:25.998Z,1.00
2018-12-21T14:05:56.576Z,0.80
2018-12-21T14:08:27.269Z,0.80
2018-12-21T14:10:58.018Z,0.90
2018-12-21T14:13:28.696Z,0.70
2018-12-21T14:15:59.434Z,0.90
2018-12-21T14:18:30.334Z,0.80
2018-12-21T14:21:00.911Z,0.70
2018-12-21T14:23:31.576Z,0.70
2018-12-21T14:26:02.250Z,0.90
2018-12-21T14:28:32.879Z,0.67
2018-12-21T14:31:03.545Z,0.70
2018-12-21T14:33:34.247Z,1.00
2018-12-21T14:36:05.301Z,0.80
2018-12-21T14:38:35.946Z,1.00
2018-12-21T14:41:06.605Z,0.70
2018-12-21T14:43:37.707Z,0.70
2018-12-21T14:46:08.794Z,1.00
2018-12-21T14:48:39.417Z,0.83
2018-12-21T14:51:10.054Z,0.97
2018-12-21T14:53:41.053Z,0.60
2018-12-21T14:56:11.668Z,0.63
2018-12-21T14:58:43.318Z,0.60
2018-12-21T15:01:14.311Z,0.60
2018-12-21T15:03:45.313Z,0.70
2018-12-21T15:06:16.013Z,1.20
2018-12-21T15:08:46.727Z,0.57
2018-12-21T15:11:17.445Z,0.60
2018-12-21T15:13:49.469Z,0.50
2018-12-21T15:16:20.941Z,0.70
2018-12-21T15:18:52.741Z,0.70
2018-12-21T15:21:25.146Z,0.70
2018-12-21T15:23:56.485Z,0.57
2018-12-21T15:26:27.701Z,0.77
2018-12-21T15:29:00.218Z,0.50
2018-12-21T15:31:31.826Z,0.57
2018-12-21T15:34:02.413Z,0.70
2018-12-21T15:36:35.469Z,0.70
2018-12-21T15:39:07.983Z,0.50
2018-12-21T15:41:40.020Z,0.63
2018-12-21T15:44:11.371Z,0.53
2018-12-21T15:46:42.710Z,0.53
2018-12-21T15:49:14.347Z,0.53
2018-12-21T15:51:47.001Z,0.70
2018-12-21T15:54:19.147Z,0.77
2018-12-21T15:56:50.760Z,1.90
2018-12-21T15:59:22.241Z,0.50
2018-12-21T16:01:52.983Z,0.70
2018-12-21T16:04:23.618Z,0.60
2018-12-21T16:06:56.334Z,0.60
2018-12-21T16:09:29.108Z,1.00
2018-12-21T16:12:00.395Z,0.80
2018-12-21T16:14:34.703Z,0.50
2018-12-21T16:17:05.650Z,0.50
2018-12-21T16:19:37.220Z,1.10
2018-12-21T16:22:08.546Z,1.03
2018-12-21T16:24:40.901Z,0.70
2018-12-21T16:27:11.525Z,0.93
2018-12-21T16:29:42.854Z,0.53
2018-12-21T16:32:14.621Z,0.60
2018-12-21T16:34:45.197Z,0.70
2018-12-21T16:37:16.437Z,0.73
2018-12-21T16:39:49.415Z,0.63
2018-12-21T16:42:20.046Z,0.77
2018-12-21T16:44:50.703Z,0.83
2018-12-21T16:47:22.522Z,0.60
2018-12-21T16:49:53.151Z,0.60
2018-12-21T16:52:27.889Z,0.80
2018-12-21T16:54:59.145Z,0.90
2018-12-21T16:57:32.641Z,0.73
2018-12-21T17:00:06.966Z,0.80
2018-12-21T17:02:38.141Z,0.70
2018-12-21T17:05:11.442Z,0.60
2018-12-21T17:07:42.974Z,0.50
2018-12-21T17:10:23.412Z,0.60
2018-12-21T17:12:54.169Z,0.70
2018-12-21T17:15:25.755Z,0.60
2018-12-21T17:17:56.813Z,0.80
2018-12-21T17:20:27.841Z,0.70
2018-12-21T17:22:58.522Z,0.63
2018-12-21T17:25:31.764Z,0.60
2018-12-21T17:28:05.190Z,0.57
2018-12-21T17:30:36.590Z,0.63
2018-12-21T17:33:07.670Z,0.67
2018-12-21T17:35:38.292Z,0.73
2018-12-21T17:38:10.255Z,0.63
2018-12-21T17:40:43.530Z,0.73
2018-12-21T17:43:15.199Z,1.00
2018-12-21T17:45:45.916Z,0.83
2018-12-21T17:48:17.947Z,0.90
2018-12-21T17:50:48.535Z,0.70
2018-12-21T17:53:19.458Z,0.90
2018-12-21T17:55:52.067Z,1.00
2018-12-21T17:58:24.221Z,0.83
2018-12-21T18:00:57.554Z,1.10
2018-12-21T18:03:42.137Z,0.80
2018-12-21T18:06:13.425Z,0.90
2018-12-21T18:08:44.218Z,1.03
2018-12-21T18:11:16.257Z,0.90
2018-12-21T18:13:48.284Z,0.90
2018-12-21T18:16:20.858Z,1.30
2018-12-21T18:18:54.995Z,0.90
2018-12-21T18:21:26.662Z,0.70
2018-12-21T18:23:59.034Z,1.07
2018-12-21T18:26:38.434Z,0.90
2018-12-21T18:29:04.868Z,0.80
2018-12-21T18:31:51.761Z,1.87
2018-12-21T18:34:32.736Z,0.80
2018-12-21T18:37:06.838Z,0.97
2018-12-21T18:39:38.005Z,0.63
2018-12-21T18:42:08.693Z,0.83
2018-12-21T18:44:39.358Z,1.00
2018-12-21T18:47:09.940Z,0.80
2018-12-21T18:49:40.590Z,0.73
2018-12-21T18:52:11.230Z,1.00
2018-12-21T18:54:41.927Z,0.83
2018-12-21T18:57:16.938Z,0.70
2018-12-21T18:59:47.719Z,0.90
2018-12-21T19:02:18.434Z,0.70
2018-12-21T19:04:49.304Z,0.90
2018-12-21T19:07:22.112Z,0.70
2018-12-21T19:09:53.223Z,0.80
2018-12-21T19:12:23.950Z,0.80
2018-12-21T19:14:55.036Z,1.47
2018-12-21T19:17:25.701Z,0.80
2018-12-21T19:19:56.662Z,0.83
2018-12-21T19:22:27.430Z,0.97
2018-12-21T19:24:58.129Z,0.83
2018-12-21T19:27:28.738Z,0.97
2018-12-21T19:29:59.505Z,0.77
2018-12-21T19:32:30.221Z,0.63
2018-12-21T19:35:01.038Z,0.60
2018-12-21T19:37:31.701Z,0.73
2018-12-21T19:40:02.342Z,0.73
2018-12-21T19:42:33.103Z,1.10
2018-12-21T19:45:04.338Z,0.90
2018-12-21T19:47:34.987Z,0.90
2018-12-21T19:50:07.431Z,0.70
2018-12-21T19:52:38.052Z,0.80
2018-12-21T19:56:21.879Z,0.90
2018-12-21T19:58:52.617Z,0.90
2018-12-21T20:01:23.595Z,0.70
2018-12-21T20:03:54.590Z,0.90
2018-12-21T20:06:25.189Z,0.70
2018-12-21T20:08:56.470Z,0.70
2018-12-21T20:11:27.102Z,0.50
2018-12-21T20:13:57.733Z,0.80
2018-12-21T20:16:29.666Z,1.20
2018-12-21T20:19:00.290Z,0.80
2018-12-21T20:21:30.942Z,0.90
2018-12-21T20:24:01.687Z,0.80
2018-12-21T20:26:32.611Z,0.83
2018-12-21T20:29:03.439Z,1.03
2018-12-21T20:31:34.068Z,0.80
2018-12-21T20:34:04.819Z,0.77
2018-12-21T20:36:35.510Z,0.97
2018-12-21T20:39:13.677Z,0.80
2018-12-21T20:41:44.731Z,0.90
2018-12-21T20:44:15.410Z,0.87
2018-12-21T20:46:46.010Z,0.90
2018-12-21T20:49:16.785Z,0.80
2018-12-21T20:51:47.498Z,1.03
2018-12-21T20:54:18.584Z,0.90
2018-12-21T20:56:53.927Z,1.00
2018-12-21T20:59:26.079Z,0.97
2018-12-21T21:01:56.778Z,0.70
2018-12-21T21:04:27.435Z,0.93
2018-12-21T21:06:58.042Z,0.70
2018-12-21T21:09:29.218Z,0.50
2018-12-21T21:11:59.850Z,0.80
2018-12-21T21:14:30.879Z,0.80
2018-12-21T21:17:01.529Z,0.67
2018-12-21T21:19:37.601Z,1.07
2018-12-21T21:22:08.299Z,0.80
2018-12-21T21:24:38.961Z,0.67
2018-12-21T21:27:09.636Z,0.60
2018-12-21T21:29:40.277Z,0.80
2018-12-21T21:32:11.060Z,0.70
2018-12-21T21:34:41.946Z,0.80
2018-12-21T21:37:12.793Z,0.80
2018-12-21T21:39:43.486Z,0.70
2018-12-21T21:42:14.711Z,0.90
2018-12-21T21:44:45.408Z,0.70
2018-12-21T21:47:16.281Z,0.70
2018-12-21T21:49:46.885Z,0.60
2018-12-21T21:52:17.895Z,1.77
2018-12-21T21:54:48.513Z,0.70
2018-12-21T21:57:19.115Z,0.60
2018-12-21T21:59:49.693Z,0.60
2018-12-21T22:02:20.826Z,0.63
2018-12-21T22:04:51.406Z,0.50
2018-12-21T22:07:23.054Z,0.77
2018-12-21T22:09:53.638Z,0.97
2018-12-21T22:12:24.390Z,0.70
2018-12-21T22:14:55.242Z,0.60
2018-12-21T22:17:26.290Z,0.63
2018-12-21T22:19:56.919Z,0.60
2018-12-21T22:22:27.675Z,0.70
2018-12-21T22:24:58.650Z,0.90
2018-12-21T22:27:29.345Z,0.77
2018-12-21T22:30:01.155Z,0.80
2018-12-21T22:32:31.819Z,0.73
2018-12-21T22:35:03.117Z,0.80
2018-12-21T22:37:33.851Z,0.90
2018-12-21T22:40:06.315Z,1.17
2018-12-21T22:42:36.963Z,0.93
2018-12-21T22:45:09.289Z,0.90
2018-12-21T22:47:39.917Z,0.87
2018-12-21T22:50:11.510Z,0.90
2018-12-21T22:52:42.118Z,0.90
2018-12-21T22:55:12.765Z,0.70
2018-12-21T22:57:43.469Z,1.07
2018-12-21T23:00:20.737Z,0.80
2018-12-21T23:02:51.402Z,1.00
2018-12-21T23:05:22.287Z,0.90
2018-12-21T23:07:52.899Z,0.80
2018-12-21T23:10:23.590Z,0.90
2018-12-21T23:12:54.222Z,0.70
2018-12-21T23:15:24.866Z,0.70
2018-12-21T23:17:55.919Z,0.60
2018-12-21T23:20:26.661Z,0.80
2018-12-21T23:22:57.294Z,0.70
2018-12-21T23:25:27.934Z,0.80
2018-12-21T23:28:05.034Z,0.80
2018-12-21T23:30:31.142Z,0.53
2018-12-21T23:33:01.755Z,0.83
2018-12-21T23:35:32.670Z,0.70
2018-12-21T23:38:03.238Z,0.70
2018-12-21T23:40:33.881Z,0.63
2018-12-21T23:43:04.510Z,0.70
2018-12-21T23:45:36.098Z,0.60
2018-12-21T23:48:06.738Z,0.80
2018-12-21T23:50:37.410Z,0.60
2018-12-21T23:53:08.013Z,0.60
2018-12-21T23:55:38.642Z,0.53
2018-12-21T23:58:13.634Z,0.60
